sensor_id;sensor_type;location;lat;lon;timestamp;P1;durP1;ratioP1;P2;durP2;ratioP2
18013;SDS011;9132;47.946;10.394;2022-12-19T00:00:32;46.67;;;23.67;;
18013;SDS011;9132;47.946;10.394;2022-12-19T00:02:59;44.57;;;22.40;;
18013;SDS011;9132;47.946;10.394;2022-12-19T00:05:27;44.10;;;23.50;;
18013;SDS011;9132;47.946;10.394;2022-12-19T00:07:53;45.03;;;22.87;;
18013;SDS011;9132;47.946;10.394;2022-12-19T00:10:19;43.17;;;22.60;;
18013;SDS011;9132;47.946;10.394;2022-12-19T00:12:46;39.23;;;22.33;;
18013;SDS011;9132;47.946;10.394;2022-12-19T00:15:12;39.27;;;22.73;;
18013;SDS011;9132;47.946;10.394;2022-12-19T00:17:38;38.93;;;20.77;;
18013;SDS011;9132;47.946;10.394;2022-12-19T00:20:05;37.97;;;21.43;;
18013;SDS011;9132;47.946;10.394;2022-12-19T00:22:33;37.57;;;20.07;;
18013;SDS011;9132;47.946;10.394;2022-12-19T00:25:00;38.37;;;21.30;;
18013;SDS011;9132;47.946;10.394;2022-12-19T00:27:26;35.20;;;20.07;;
18013;SDS011;9132;47.946;10.394;2022-12-19T00:29:52;40.13;;;21.97;;
18013;SDS011;9132;47.946;10.394;2022-12-19T00:32:19;41.47;;;21.83;;
18013;SDS011;9132;47.946;10.394;2022-12-19T00:34:45;42.43;;;21.60;;
18013;SDS011;9132;47.946;10.394;2022-12-19T00:37:11;35.90;;;20.57;;
18013;SDS011;9132;47.946;10.394;2022-12-19T00:39:39;36.70;;;21.63;;
18013;SDS011;9132;47.946;10.394;2022-12-19T00:42:05;46.43;;;22.63;;
18013;SDS011;9132;47.946;10.394;2022-12-19T00:44:32;40.90;;;21.17;;
18013;SDS011;9132;47.946;10.394;2022-12-19T00:46:58;40.73;;;21.53;;
18013;SDS011;9132;47.946;10.394;2022-12-19T00:49:25;40.90;;;21.17;;
18013;SDS011;9132;47.946;10.394;2022-12-19T00:51:51;38.77;;;21.53;;
18013;SDS011;9132;47.946;10.394;2022-12-19T00:54:18;37.57;;;21.37;;
18013;SDS011;9132;47.946;10.394;2022-12-19T00:56:46;42.90;;;21.17;;
18013;SDS011;9132;47.946;10.394;2022-12-19T00:59:12;38.00;;;21.33;;
18013;SDS011;9132;47.946;10.394;2022-12-19T01:01:39;36.33;;;20.23;;
18013;SDS011;9132;47.946;10.394;2022-12-19T01:04:06;37.60;;;21.33;;
18013;SDS011;9132;47.946;10.394;2022-12-19T01:06:33;37.07;;;20.00;;
18013;SDS011;9132;47.946;10.394;2022-12-19T01:08:59;35.63;;;20.10;;
18013;SDS011;9132;47.946;10.394;2022-12-19T01:11:26;36.30;;;20.90;;
18013;SDS011;9132;47.946;10.394;2022-12-19T01:14:07;38.77;;;21.10;;
18013;SDS011;9132;47.946;10.394;2022-12-19T01:16:34;37.17;;;19.80;;
18013;SDS011;9132;47.946;10.394;2022-12-19T01:19:00;34.60;;;18.37;;
18013;SDS011;9132;47.946;10.394;2022-12-19T01:21:27;38.27;;;20.50;;
18013;SDS011;9132;47.946;10.394;2022-12-19T01:23:53;36.60;;;20.87;;
18013;SDS011;9132;47.946;10.394;2022-12-19T01:26:20;37.03;;;20.10;;
18013;SDS011;9132;47.946;10.394;2022-12-19T01:28:46;35.00;;;19.40;;
18013;SDS011;9132;47.946;10.394;2022-12-19T01:31:14;38.50;;;21.07;;
18013;SDS011;9132;47.946;10.394;2022-12-19T01:33:40;30.53;;;18.63;;
18013;SDS011;9132;47.946;10.394;2022-12-19T01:36:07;35.30;;;18.10;;
18013;SDS011;9132;47.946;10.394;2022-12-19T01:38:34;35.70;;;18.67;;
18013;SDS011;9132;47.946;10.394;2022-12-19T01:41:00;31.83;;;19.90;;
18013;SDS011;9132;47.946;10.394;2022-12-19T01:43:28;35.20;;;20.00;;
18013;SDS011;9132;47.946;10.394;2022-12-19T01:45:55;34.57;;;18.43;;
18013;SDS011;9132;47.946;10.394;2022-12-19T01:48:25;33.47;;;19.23;;
18013;SDS011;9132;47.946;10.394;2022-12-19T01:50:55;33.33;;;18.43;;
18013;SDS011;9132;47.946;10.394;2022-12-19T01:53:22;33.13;;;17.63;;
18013;SDS011;9132;47.946;10.394;2022-12-19T01:55:50;34.30;;;18.93;;
18013;SDS011;9132;47.946;10.394;2022-12-19T01:58:17;32.47;;;18.07;;
18013;SDS011;9132;47.946;10.394;2022-12-19T02:00:44;33.93;;;18.43;;
18013;SDS011;9132;47.946;10.394;2022-12-19T02:03:11;33.13;;;18.47;;
18013;SDS011;9132;47.946;10.394;2022-12-19T02:05:41;30.40;;;18.00;;
18013;SDS011;9132;47.946;10.394;2022-12-19T02:08:08;36.17;;;19.20;;
18013;SDS011;9132;47.946;10.394;2022-12-19T02:10:35;30.70;;;18.03;;
18013;SDS011;9132;47.946;10.394;2022-12-19T02:13:01;29.73;;;17.13;;
18013;SDS011;9132;47.946;10.394;2022-12-19T02:15:28;30.13;;;16.50;;
18013;SDS011;9132;47.946;10.394;2022-12-19T02:18:01;25.83;;;15.80;;
18013;SDS011;9132;47.946;10.394;2022-12-19T02:20:35;26.37;;;13.80;;
18013;SDS011;9132;47.946;10.394;2022-12-19T02:23:13;19.17;;;12.97;;
18013;SDS011;9132;47.946;10.394;2022-12-19T02:25:47;19.47;;;11.90;;
18013;SDS011;9132;47.946;10.394;2022-12-19T02:28:28;20.17;;;12.17;;
18013;SDS011;9132;47.946;10.394;2022-12-19T02:31:03;17.93;;;11.77;;
18013;SDS011;9132;47.946;10.394;2022-12-19T02:33:31;19.23;;;11.13;;
18013;SDS011;9132;47.946;10.394;2022-12-19T02:36:01;14.77;;;9.60;;
18013;SDS011;9132;47.946;10.394;2022-12-19T02:38:31;14.43;;;9.53;;
18013;SDS011;9132;47.946;10.394;2022-12-19T02:41:02;11.67;;;7.27;;
18013;SDS011;9132;47.946;10.394;2022-12-19T02:43:31;9.83;;;7.03;;
18013;SDS011;9132;47.946;10.394;2022-12-19T02:46:00;10.47;;;6.50;;
18013;SDS011;9132;47.946;10.394;2022-12-19T02:48:29;10.03;;;6.13;;
18013;SDS011;9132;47.946;10.394;2022-12-19T02:50:56;9.20;;;6.00;;
18013;SDS011;9132;47.946;10.394;2022-12-19T02:53:22;9.83;;;6.43;;
18013;SDS011;9132;47.946;10.394;2022-12-19T02:55:49;10.07;;;6.43;;
18013;SDS011;9132;47.946;10.394;2022-12-19T02:58:23;8.73;;;6.33;;
18013;SDS011;9132;47.946;10.394;2022-12-19T03:00:53;8.50;;;5.60;;
18013;SDS011;9132;47.946;10.394;2022-12-19T03:03:20;7.70;;;5.47;;
18013;SDS011;9132;47.946;10.394;2022-12-19T03:05:52;8.57;;;4.90;;
18013;SDS011;9132;47.946;10.394;2022-12-19T03:08:20;7.90;;;5.13;;
18013;SDS011;9132;47.946;10.394;2022-12-19T03:10:51;7.10;;;4.60;;
18013;SDS011;9132;47.946;10.394;2022-12-19T03:13:20;6.73;;;4.20;;
18013;SDS011;9132;47.946;10.394;2022-12-19T03:15:48;7.40;;;5.20;;
18013;SDS011;9132;47.946;10.394;2022-12-19T03:18:14;6.93;;;4.20;;
18013;SDS011;9132;47.946;10.394;2022-12-19T03:20:42;8.53;;;5.27;;
18013;SDS011;9132;47.946;10.394;2022-12-19T03:23:11;6.43;;;4.30;;
18013;SDS011;9132;47.946;10.394;2022-12-19T03:25:37;8.10;;;4.07;;
18013;SDS011;9132;47.946;10.394;2022-12-19T03:28:07;5.83;;;4.27;;
18013;SDS011;9132;47.946;10.394;2022-12-19T03:30:36;7.17;;;4.87;;
18013;SDS011;9132;47.946;10.394;2022-12-19T03:33:04;5.30;;;4.43;;
18013;SDS011;9132;47.946;10.394;2022-12-19T03:35:32;5.57;;;4.23;;
18013;SDS011;9132;47.946;10.394;2022-12-19T03:38:01;5.00;;;3.70;;
18013;SDS011;9132;47.946;10.394;2022-12-19T03:40:29;6.87;;;4.03;;
18013;SDS011;9132;47.946;10.394;2022-12-19T03:42:58;5.70;;;3.97;;
18013;SDS011;9132;47.946;10.394;2022-12-19T03:45:38;6.67;;;4.13;;
18013;SDS011;9132;47.946;10.394;2022-12-19T03:48:06;4.67;;;3.57;;
18013;SDS011;9132;47.946;10.394;2022-12-19T03:50:37;5.77;;;4.13;;
18013;SDS011;9132;47.946;10.394;2022-12-19T03:53:11;4.93;;;3.57;;
18013;SDS011;9132;47.946;10.394;2022-12-19T03:55:43;6.37;;;4.10;;
18013;SDS011;9132;47.946;10.394;2022-12-19T03:58:12;8.30;;;4.47;;
18013;SDS011;9132;47.946;10.394;2022-12-19T04:00:42;5.37;;;4.30;;
18013;SDS011;9132;47.946;10.394;2022-12-19T04:03:11;6.23;;;4.20;;
18013;SDS011;9132;47.946;10.394;2022-12-19T04:05:38;4.97;;;3.40;;
18013;SDS011;9132;47.946;10.394;2022-12-19T04:08:06;4.60;;;3.53;;
18013;SDS011;9132;47.946;10.394;2022-12-19T04:10:33;4.80;;;3.40;;
18013;SDS011;9132;47.946;10.394;2022-12-19T04:13:03;3.63;;;3.10;;
18013;SDS011;9132;47.946;10.394;2022-12-19T04:15:33;5.57;;;3.17;;
18013;SDS011;9132;47.946;10.394;2022-12-19T04:18:00;3.83;;;3.27;;
18013;SDS011;9132;47.946;10.394;2022-12-19T04:20:29;3.57;;;3.10;;
18013;SDS011;9132;47.946;10.394;2022-12-19T04:22:57;4.40;;;3.73;;
18013;SDS011;9132;47.946;10.394;2022-12-19T04:25:25;3.87;;;3.27;;
18013;SDS011;9132;47.946;10.394;2022-12-19T04:27:53;6.53;;;3.83;;
18013;SDS011;9132;47.946;10.394;2022-12-19T04:30:22;4.30;;;3.00;;
18013;SDS011;9132;47.946;10.394;2022-12-19T04:32:48;3.70;;;2.77;;
18013;SDS011;9132;47.946;10.394;2022-12-19T04:35:15;4.03;;;2.97;;
18013;SDS011;9132;47.946;10.394;2022-12-19T04:37:41;3.60;;;2.77;;
18013;SDS011;9132;47.946;10.394;2022-12-19T04:40:08;3.20;;;2.57;;
18013;SDS011;9132;47.946;10.394;2022-12-19T04:42:35;2.83;;;2.30;;
18013;SDS011;9132;47.946;10.394;2022-12-19T04:45:01;3.60;;;2.40;;
18013;SDS011;9132;47.946;10.394;2022-12-19T04:47:29;3.60;;;2.47;;
18013;SDS011;9132;47.946;10.394;2022-12-19T04:49:55;3.00;;;2.37;;
18013;SDS011;9132;47.946;10.394;2022-12-19T04:52:21;2.83;;;2.30;;
18013;SDS011;9132;47.946;10.394;2022-12-19T04:54:48;3.00;;;2.63;;
18013;SDS011;9132;47.946;10.394;2022-12-19T04:57:14;2.80;;;2.43;;
18013;SDS011;9132;47.946;10.394;2022-12-19T04:59:40;2.83;;;2.20;;
18013;SDS011;9132;47.946;10.394;2022-12-19T05:02:07;3.00;;;2.27;;
18013;SDS011;9132;47.946;10.394;2022-12-19T05:04:35;2.53;;;2.20;;
18013;SDS011;9132;47.946;10.394;2022-12-19T05:07:01;3.50;;;2.70;;
18013;SDS011;9132;47.946;10.394;2022-12-19T05:09:27;3.73;;;3.03;;
18013;SDS011;9132;47.946;10.394;2022-12-19T05:11:54;4.30;;;2.90;;
18013;SDS011;9132;47.946;10.394;2022-12-19T05:14:20;4.83;;;3.77;;
18013;SDS011;9132;47.946;10.394;2022-12-19T05:16:46;5.10;;;3.90;;
18013;SDS011;9132;47.946;10.394;2022-12-19T05:19:13;5.13;;;4.07;;
18013;SDS011;9132;47.946;10.394;2022-12-19T05:21:40;4.60;;;3.57;;
18013;SDS011;9132;47.946;10.394;2022-12-19T05:24:07;5.53;;;4.03;;
18013;SDS011;9132;47.946;10.394;2022-12-19T05:26:33;4.93;;;3.97;;
18013;SDS011;9132;47.946;10.394;2022-12-19T05:28:59;5.50;;;4.83;;
18013;SDS011;9132;47.946;10.394;2022-12-19T05:31:26;9.03;;;5.77;;
18013;SDS011;9132;47.946;10.394;2022-12-19T05:33:52;6.93;;;5.70;;
18013;SDS011;9132;47.946;10.394;2022-12-19T05:36:19;8.40;;;6.70;;
18013;SDS011;9132;47.946;10.394;2022-12-19T05:38:46;9.40;;;7.60;;
18013;SDS011;9132;47.946;10.394;2022-12-19T05:41:13;14.47;;;9.40;;
18013;SDS011;9132;47.946;10.394;2022-12-19T05:43:39;10.17;;;7.33;;
18013;SDS011;9132;47.946;10.394;2022-12-19T05:46:06;10.37;;;6.97;;
18013;SDS011;9132;47.946;10.394;2022-12-19T05:48:33;10.10;;;6.90;;
18013;SDS011;9132;47.946;10.394;2022-12-19T05:50:59;11.10;;;8.30;;
18013;SDS011;9132;47.946;10.394;2022-12-19T05:53:26;14.10;;;8.93;;
18013;SDS011;9132;47.946;10.394;2022-12-19T05:56:00;12.77;;;7.83;;
18013;SDS011;9132;47.946;10.394;2022-12-19T05:58:27;13.80;;;9.97;;
18013;SDS011;9132;47.946;10.394;2022-12-19T06:00:53;12.27;;;7.93;;
18013;SDS011;9132;47.946;10.394;2022-12-19T06:03:19;12.13;;;7.27;;
18013;SDS011;9132;47.946;10.394;2022-12-19T06:05:46;16.13;;;9.77;;
18013;SDS011;9132;47.946;10.394;2022-12-19T06:08:12;18.13;;;10.97;;
18013;SDS011;9132;47.946;10.394;2022-12-19T06:10:39;16.63;;;10.57;;
18013;SDS011;9132;47.946;10.394;2022-12-19T06:13:06;21.40;;;13.97;;
18013;SDS011;9132;47.946;10.394;2022-12-19T06:15:33;20.00;;;13.17;;
18013;SDS011;9132;47.946;10.394;2022-12-19T06:17:59;19.80;;;12.63;;
18013;SDS011;9132;47.946;10.394;2022-12-19T06:20:25;17.13;;;11.10;;
18013;SDS011;9132;47.946;10.394;2022-12-19T06:22:52;14.77;;;8.13;;
18013;SDS011;9132;47.946;10.394;2022-12-19T06:25:18;10.63;;;7.53;;
18013;SDS011;9132;47.946;10.394;2022-12-19T06:27:44;9.10;;;7.00;;
18013;SDS011;9132;47.946;10.394;2022-12-19T06:30:13;10.13;;;7.20;;
18013;SDS011;9132;47.946;10.394;2022-12-19T06:32:40;12.67;;;8.60;;
18013;SDS011;9132;47.946;10.394;2022-12-19T06:35:06;10.13;;;6.37;;
18013;SDS011;9132;47.946;10.394;2022-12-19T06:37:33;8.27;;;6.27;;
18013;SDS011;9132;47.946;10.394;2022-12-19T06:39:59;9.03;;;6.50;;
18013;SDS011;9132;47.946;10.394;2022-12-19T06:42:25;8.57;;;5.80;;
18013;SDS011;9132;47.946;10.394;2022-12-19T06:44:51;5.47;;;4.60;;
18013;SDS011;9132;47.946;10.394;2022-12-19T06:47:19;5.53;;;4.10;;
18013;SDS011;9132;47.946;10.394;2022-12-19T06:49:46;4.03;;;3.53;;
18013;SDS011;9132;47.946;10.394;2022-12-19T06:52:12;4.43;;;3.27;;
18013;SDS011;9132;47.946;10.394;2022-12-19T06:54:39;4.43;;;3.63;;
18013;SDS011;9132;47.946;10.394;2022-12-19T06:57:05;4.57;;;3.60;;
18013;SDS011;9132;47.946;10.394;2022-12-19T06:59:32;4.37;;;3.23;;
18013;SDS011;9132;47.946;10.394;2022-12-19T07:01:59;4.47;;;3.40;;
18013;SDS011;9132;47.946;10.394;2022-12-19T07:04:29;4.67;;;3.50;;
18013;SDS011;9132;47.946;10.394;2022-12-19T07:06:57;4.23;;;3.23;;
18013;SDS011;9132;47.946;10.394;2022-12-19T07:09:24;3.83;;;3.10;;
18013;SDS011;9132;47.946;10.394;2022-12-19T07:11:50;4.43;;;2.73;;
18013;SDS011;9132;47.946;10.394;2022-12-19T07:14:17;3.77;;;3.03;;
18013;SDS011;9132;47.946;10.394;2022-12-19T07:16:43;4.13;;;3.10;;
18013;SDS011;9132;47.946;10.394;2022-12-19T07:19:10;3.83;;;3.43;;
18013;SDS011;9132;47.946;10.394;2022-12-19T07:21:38;5.00;;;3.40;;
18013;SDS011;9132;47.946;10.394;2022-12-19T07:24:05;3.93;;;3.50;;
18013;SDS011;9132;47.946;10.394;2022-12-19T07:26:32;4.30;;;3.07;;
18013;SDS011;9132;47.946;10.394;2022-12-19T07:28:58;5.47;;;3.73;;
18013;SDS011;9132;47.946;10.394;2022-12-19T07:31:25;4.33;;;3.27;;
18013;SDS011;9132;47.946;10.394;2022-12-19T07:33:51;4.63;;;3.07;;
18013;SDS011;9132;47.946;10.394;2022-12-19T07:36:18;6.40;;;3.40;;
18013;SDS011;9132;47.946;10.394;2022-12-19T07:38:45;5.23;;;3.37;;
18013;SDS011;9132;47.946;10.394;2022-12-19T07:41:12;4.67;;;3.40;;
18013;SDS011;9132;47.946;10.394;2022-12-19T07:43:38;5.00;;;3.07;;
18013;SDS011;9132;47.946;10.394;2022-12-19T07:46:04;4.93;;;3.50;;
18013;SDS011;9132;47.946;10.394;2022-12-19T07:48:31;5.63;;;3.07;;
18013;SDS011;9132;47.946;10.394;2022-12-19T07:50:57;4.00;;;2.63;;
18013;SDS011;9132;47.946;10.394;2022-12-19T07:53:23;3.83;;;2.70;;
18013;SDS011;9132;47.946;10.394;2022-12-19T07:55:51;3.80;;;2.73;;
18013;SDS011;9132;47.946;10.394;2022-12-19T07:58:18;3.47;;;2.70;;
18013;SDS011;9132;47.946;10.394;2022-12-19T08:00:44;3.67;;;2.60;;
18013;SDS011;9132;47.946;10.394;2022-12-19T08:03:10;2.87;;;2.50;;
18013;SDS011;9132;47.946;10.394;2022-12-19T08:05:37;3.50;;;2.90;;
18013;SDS011;9132;47.946;10.394;2022-12-19T08:08:03;5.63;;;3.53;;
18013;SDS011;9132;47.946;10.394;2022-12-19T08:10:29;4.27;;;3.00;;
18013;SDS011;9132;47.946;10.394;2022-12-19T08:12:57;3.63;;;2.60;;
18013;SDS011;9132;47.946;10.394;2022-12-19T08:15:23;4.53;;;3.33;;
18013;SDS011;9132;47.946;10.394;2022-12-19T08:17:50;4.30;;;3.17;;
18013;SDS011;9132;47.946;10.394;2022-12-19T08:20:16;3.83;;;2.80;;
18013;SDS011;9132;47.946;10.394;2022-12-19T08:22:43;4.33;;;2.87;;
18013;SDS011;9132;47.946;10.394;2022-12-19T08:25:09;3.43;;;2.57;;
18013;SDS011;9132;47.946;10.394;2022-12-19T08:27:37;3.83;;;2.87;;
18013;SDS011;9132;47.946;10.394;2022-12-19T08:30:05;4.73;;;3.17;;
18013;SDS011;9132;47.946;10.394;2022-12-19T08:32:32;4.27;;;3.10;;
18013;SDS011;9132;47.946;10.394;2022-12-19T08:34:58;4.93;;;3.07;;
18013;SDS011;9132;47.946;10.394;2022-12-19T08:37:25;3.93;;;2.80;;
18013;SDS011;9132;47.946;10.394;2022-12-19T08:39:51;3.40;;;3.07;;
18013;SDS011;9132;47.946;10.394;2022-12-19T08:42:17;5.93;;;3.00;;
18013;SDS011;9132;47.946;10.394;2022-12-19T08:44:44;3.77;;;2.90;;
18013;SDS011;9132;47.946;10.394;2022-12-19T08:47:11;3.63;;;2.67;;
18013;SDS011;9132;47.946;10.394;2022-12-19T08:49:38;3.40;;;2.80;;
18013;SDS011;9132;47.946;10.394;2022-12-19T08:52:04;4.23;;;2.80;;
18013;SDS011;9132;47.946;10.394;2022-12-19T08:54:31;3.07;;;2.50;;
18013;SDS011;9132;47.946;10.394;2022-12-19T08:56:57;3.57;;;2.70;;
18013;SDS011;9132;47.946;10.394;2022-12-19T08:59:23;4.37;;;2.80;;
18013;SDS011;9132;47.946;10.394;2022-12-19T09:01:50;4.13;;;3.03;;
18013;SDS011;9132;47.946;10.394;2022-12-19T09:04:17;3.73;;;2.70;;
18013;SDS011;9132;47.946;10.394;2022-12-19T09:06:44;5.83;;;3.57;;
18013;SDS011;9132;47.946;10.394;2022-12-19T09:09:10;3.03;;;2.73;;
18013;SDS011;9132;47.946;10.394;2022-12-19T09:11:36;3.80;;;3.00;;
18013;SDS011;9132;47.946;10.394;2022-12-19T09:14:03;4.33;;;3.10;;
18013;SDS011;9132;47.946;10.394;2022-12-19T09:16:29;4.10;;;2.90;;
18013;SDS011;9132;47.946;10.394;2022-12-19T09:18:56;3.53;;;2.83;;
18013;SDS011;9132;47.946;10.394;2022-12-19T09:21:25;4.57;;;3.23;;
18013;SDS011;9132;47.946;10.394;2022-12-19T09:23:53;4.53;;;3.07;;
18013;SDS011;9132;47.946;10.394;2022-12-19T09:26:20;5.07;;;3.40;;
18013;SDS011;9132;47.946;10.394;2022-12-19T09:28:47;4.80;;;2.90;;
18013;SDS011;9132;47.946;10.394;2022-12-19T09:31:14;5.63;;;3.30;;
18013;SDS011;9132;47.946;10.394;2022-12-19T09:33:41;3.87;;;3.20;;
18013;SDS011;9132;47.946;10.394;2022-12-19T09:36:09;4.70;;;3.30;;
18013;SDS011;9132;47.946;10.394;2022-12-19T09:38:38;6.77;;;4.43;;
18013;SDS011;9132;47.946;10.394;2022-12-19T09:41:13;6.20;;;4.17;;
18013;SDS011;9132;47.946;10.394;2022-12-19T09:43:46;4.10;;;3.43;;
18013;SDS011;9132;47.946;10.394;2022-12-19T09:46:17;5.90;;;3.83;;
18013;SDS011;9132;47.946;10.394;2022-12-19T09:48:44;5.73;;;3.90;;
18013;SDS011;9132;47.946;10.394;2022-12-19T09:51:11;5.33;;;3.90;;
18013;SDS011;9132;47.946;10.394;2022-12-19T09:53:43;5.33;;;4.07;;
18013;SDS011;9132;47.946;10.394;2022-12-19T09:56:15;7.80;;;5.40;;
18013;SDS011;9132;47.946;10.394;2022-12-19T09:58:43;4.63;;;3.80;;
18013;SDS011;9132;47.946;10.394;2022-12-19T10:01:14;5.27;;;3.87;;
18013;SDS011;9132;47.946;10.394;2022-12-19T10:03:42;4.60;;;3.90;;
18013;SDS011;9132;47.946;10.394;2022-12-19T10:06:12;5.47;;;4.00;;
18013;SDS011;9132;47.946;10.394;2022-12-19T10:08:41;7.20;;;5.27;;
18013;SDS011;9132;47.946;10.394;2022-12-19T10:11:10;7.77;;;5.07;;
18013;SDS011;9132;47.946;10.394;2022-12-19T10:13:46;5.33;;;4.30;;
18013;SDS011;9132;47.946;10.394;2022-12-19T10:16:17;10.60;;;5.80;;
18013;SDS011;9132;47.946;10.394;2022-12-19T10:18:48;7.67;;;4.20;;
18013;SDS011;9132;47.946;10.394;2022-12-19T10:21:20;4.30;;;3.63;;
18013;SDS011;9132;47.946;10.394;2022-12-19T10:24:01;5.03;;;3.93;;
18013;SDS011;9132;47.946;10.394;2022-12-19T10:26:33;5.13;;;3.70;;
18013;SDS011;9132;47.946;10.394;2022-12-19T10:29:05;5.27;;;3.50;;
18013;SDS011;9132;47.946;10.394;2022-12-19T10:31:35;8.50;;;4.03;;
18013;SDS011;9132;47.946;10.394;2022-12-19T10:34:05;4.73;;;3.90;;
18013;SDS011;9132;47.946;10.394;2022-12-19T10:36:36;6.23;;;4.23;;
18013;SDS011;9132;47.946;10.394;2022-12-19T10:39:07;4.77;;;4.10;;
18013;SDS011;9132;47.946;10.394;2022-12-19T10:41:36;5.23;;;4.00;;
18013;SDS011;9132;47.946;10.394;2022-12-19T10:44:07;5.13;;;4.10;;
18013;SDS011;9132;47.946;10.394;2022-12-19T10:46:36;5.00;;;3.57;;
18013;SDS011;9132;47.946;10.394;2022-12-19T10:49:05;5.70;;;3.80;;
18013;SDS011;9132;47.946;10.394;2022-12-19T10:51:31;5.83;;;3.87;;
18013;SDS011;9132;47.946;10.394;2022-12-19T10:53:58;8.33;;;6.40;;
18013;SDS011;9132;47.946;10.394;2022-12-19T10:56:27;6.80;;;4.50;;
18013;SDS011;9132;47.946;10.394;2022-12-19T10:58:54;5.63;;;3.53;;
18013;SDS011;9132;47.946;10.394;2022-12-19T11:01:23;7.03;;;3.80;;
18013;SDS011;9132;47.946;10.394;2022-12-19T11:03:51;4.47;;;3.53;;
18013;SDS011;9132;47.946;10.394;2022-12-19T11:09:10;4.87;;;3.50;;
18013;SDS011;9132;47.946;10.394;2022-12-19T11:11:43;5.47;;;4.07;;
18013;SDS011;9132;47.946;10.394;2022-12-19T11:14:17;4.30;;;3.77;;
18013;SDS011;9132;47.946;10.394;2022-12-19T11:16:45;4.30;;;3.63;;
18013;SDS011;9132;47.946;10.394;2022-12-19T11:19:18;4.10;;;3.47;;
18013;SDS011;9132;47.946;10.394;2022-12-19T11:21:45;5.97;;;3.20;;
18013;SDS011;9132;47.946;10.394;2022-12-19T11:24:12;4.53;;;3.57;;
18013;SDS011;9132;47.946;10.394;2022-12-19T11:26:44;6.70;;;4.23;;
18013;SDS011;9132;47.946;10.394;2022-12-19T11:29:16;5.20;;;4.03;;
18013;SDS011;9132;47.946;10.394;2022-12-19T11:31:43;5.67;;;4.20;;
18013;SDS011;9132;47.946;10.394;2022-12-19T11:34:12;5.57;;;4.67;;
18013;SDS011;9132;47.946;10.394;2022-12-19T11:36:40;6.70;;;4.43;;
18013;SDS011;9132;47.946;10.394;2022-12-19T11:39:11;6.03;;;4.13;;
18013;SDS011;9132;47.946;10.394;2022-12-19T11:41:41;4.63;;;3.90;;
18013;SDS011;9132;47.946;10.394;2022-12-19T11:44:11;6.57;;;4.20;;
18013;SDS011;9132;47.946;10.394;2022-12-19T11:46:42;5.33;;;4.10;;
18013;SDS011;9132;47.946;10.394;2022-12-19T11:49:11;6.60;;;4.70;;
18013;SDS011;9132;47.946;10.394;2022-12-19T11:51:41;7.23;;;5.97;;
18013;SDS011;9132;47.946;10.394;2022-12-19T11:54:11;8.10;;;5.37;;
18013;SDS011;9132;47.946;10.394;2022-12-19T11:56:38;6.57;;;5.03;;
18013;SDS011;9132;47.946;10.394;2022-12-19T11:59:09;6.03;;;4.20;;
18013;SDS011;9132;47.946;10.394;2022-12-19T12:01:40;6.00;;;4.47;;
18013;SDS011;9132;47.946;10.394;2022-12-19T12:04:13;6.93;;;4.73;;
18013;SDS011;9132;47.946;10.394;2022-12-19T12:06:44;5.97;;;4.80;;
18013;SDS011;9132;47.946;10.394;2022-12-19T12:09:16;5.70;;;4.73;;
18013;SDS011;9132;47.946;10.394;2022-12-19T12:11:43;5.40;;;4.27;;
18013;SDS011;9132;47.946;10.394;2022-12-19T12:14:14;5.30;;;4.70;;
18013;SDS011;9132;47.946;10.394;2022-12-19T12:16:46;6.77;;;5.10;;
18013;SDS011;9132;47.946;10.394;2022-12-19T12:19:18;7.53;;;5.03;;
18013;SDS011;9132;47.946;10.394;2022-12-19T12:21:49;7.10;;;5.13;;
18013;SDS011;9132;47.946;10.394;2022-12-19T12:24:19;7.33;;;4.77;;
18013;SDS011;9132;47.946;10.394;2022-12-19T12:26:52;6.33;;;4.43;;
18013;SDS011;9132;47.946;10.394;2022-12-19T12:29:23;6.37;;;4.90;;
18013;SDS011;9132;47.946;10.394;2022-12-19T12:32:06;6.13;;;4.53;;
18013;SDS011;9132;47.946;10.394;2022-12-19T12:34:48;6.17;;;4.77;;
18013;SDS011;9132;47.946;10.394;2022-12-19T12:37:23;7.63;;;5.78;;
18013;SDS011;9132;47.946;10.394;2022-12-19T12:39:56;6.87;;;4.93;;
18013;SDS011;9132;47.946;10.394;2022-12-19T12:42:29;5.60;;;4.97;;
18013;SDS011;9132;47.946;10.394;2022-12-19T12:44:58;7.00;;;4.43;;
18013;SDS011;9132;47.946;10.394;2022-12-19T12:47:26;5.55;;;5.05;;
18013;SDS011;9132;47.946;10.394;2022-12-19T12:49:53;5.60;;;5.03;;
18013;SDS011;9132;47.946;10.394;2022-12-19T12:52:22;6.10;;;4.67;;
18013;SDS011;9132;47.946;10.394;2022-12-19T12:54:51;14.90;;;9.63;;
18013;SDS011;9132;47.946;10.394;2022-12-19T12:57:24;10.90;;;7.33;;
18013;SDS011;9132;47.946;10.394;2022-12-19T13:00:12;7.30;;;5.20;;
18013;SDS011;9132;47.946;10.394;2022-12-19T13:02:40;7.37;;;5.33;;
18013;SDS011;9132;47.946;10.394;2022-12-19T13:05:14;7.07;;;5.40;;
18013;SDS011;9132;47.946;10.394;2022-12-19T13:07:49;7.83;;;5.67;;
18013;SDS011;9132;47.946;10.394;2022-12-19T13:10:21;6.83;;;5.17;;
18013;SDS011;9132;47.946;10.394;2022-12-19T13:12:52;6.47;;;4.90;;
18013;SDS011;9132;47.946;10.394;2022-12-19T13:18:29;5.97;;;4.90;;
18013;SDS011;9132;47.946;10.394;2022-12-19T13:20:56;7.27;;;5.23;;
18013;SDS011;9132;47.946;10.394;2022-12-19T13:23:31;7.03;;;4.57;;
18013;SDS011;9132;47.946;10.394;2022-12-19T13:25:58;5.07;;;3.93;;
18013;SDS011;9132;47.946;10.394;2022-12-19T13:28:38;6.07;;;4.67;;
18013;SDS011;9132;47.946;10.394;2022-12-19T13:31:18;5.73;;;4.60;;
18013;SDS011;9132;47.946;10.394;2022-12-19T13:39:19;7.70;;;5.23;;
18013;SDS011;9132;47.946;10.394;2022-12-19T13:41:48;6.67;;;5.33;;
18013;SDS011;9132;47.946;10.394;2022-12-19T13:44:34;9.60;;;6.23;;
18013;SDS011;9132;47.946;10.394;2022-12-19T13:47:01;7.27;;;5.23;;
18013;SDS011;9132;47.946;10.394;2022-12-19T13:49:28;8.33;;;4.97;;
18013;SDS011;9132;47.946;10.394;2022-12-19T13:51:55;6.37;;;5.07;;
18013;SDS011;9132;47.946;10.394;2022-12-19T13:54:24;6.63;;;4.77;;
18013;SDS011;9132;47.946;10.394;2022-12-19T13:56:51;5.77;;;4.50;;
18013;SDS011;9132;47.946;10.394;2022-12-19T13:59:18;5.70;;;4.63;;
18013;SDS011;9132;47.946;10.394;2022-12-19T14:01:45;7.03;;;5.30;;
18013;SDS011;9132;47.946;10.394;2022-12-19T14:04:12;8.77;;;4.93;;
18013;SDS011;9132;47.946;10.394;2022-12-19T14:06:41;6.77;;;5.37;;
18013;SDS011;9132;47.946;10.394;2022-12-19T14:09:13;10.90;;;7.30;;
18013;SDS011;9132;47.946;10.394;2022-12-19T14:11:45;11.37;;;7.80;;
18013;SDS011;9132;47.946;10.394;2022-12-19T14:14:13;13.13;;;8.40;;
18013;SDS011;9132;47.946;10.394;2022-12-19T14:17:04;13.03;;;7.40;;
18013;SDS011;9132;47.946;10.394;2022-12-19T14:19:36;11.90;;;7.63;;
18013;SDS011;9132;47.946;10.394;2022-12-19T14:22:08;10.80;;;7.00;;
18013;SDS011;9132;47.946;10.394;2022-12-19T14:24:35;20.90;;;12.67;;
18013;SDS011;9132;47.946;10.394;2022-12-19T14:27:03;14.37;;;10.27;;
18013;SDS011;9132;47.946;10.394;2022-12-19T14:29:31;7.77;;;5.00;;
18013;SDS011;9132;47.946;10.394;2022-12-19T14:31:58;6.67;;;5.53;;
18013;SDS011;9132;47.946;10.394;2022-12-19T14:34:26;5.40;;;4.63;;
18013;SDS011;9132;47.946;10.394;2022-12-19T14:36:54;6.20;;;4.43;;
18013;SDS011;9132;47.946;10.394;2022-12-19T14:39:21;5.67;;;4.80;;
18013;SDS011;9132;47.946;10.394;2022-12-19T14:41:48;7.63;;;5.27;;
18013;SDS011;9132;47.946;10.394;2022-12-19T14:44:45;7.07;;;4.87;;
18013;SDS011;9132;47.946;10.394;2022-12-19T14:47:12;6.50;;;4.70;;
18013;SDS011;9132;47.946;10.394;2022-12-19T14:49:39;4.77;;;4.00;;
18013;SDS011;9132;47.946;10.394;2022-12-19T14:55:00;7.00;;;4.17;;
18013;SDS011;9132;47.946;10.394;2022-12-19T14:57:37;5.03;;;4.27;;
18013;SDS011;9132;47.946;10.394;2022-12-19T15:02:49;4.87;;;3.83;;
18013;SDS011;9132;47.946;10.394;2022-12-19T15:05:15;6.03;;;4.53;;